sensor_id;sensor_type;location;lat;lon;timestamp;P1;durP1;ratioP1;P2;durP2;ratioP2
68196;SDS011;55019;49.382;11.358;2023-04-28T00:01:36;2.55;;;1.50;;
68196;SDS011;55019;49.382;11.358;2023-04-28T00:04:02;4.53;;;1.98;;
68196;SDS011;55019;49.382;11.358;2023-04-28T00:06:28;3.15;;;1.95;;
68196;SDS011;55019;49.382;11.358;2023-04-28T00:08:55;1.98;;;1.50;;
68196;SDS011;55019;49.382;11.358;2023-04-28T00:11:20;2.63;;;2.15;;
68196;SDS011;55019;49.382;11.358;2023-04-28T00:13:46;2.60;;;1.67;;
68196;SDS011;55019;49.382;11.358;2023-04-28T00:16:12;3.20;;;1.63;;
68196;SDS011;55019;49.382;11.358;2023-04-28T00:18:37;2.78;;;1.80;;
68196;SDS011;55019;49.382;11.358;2023-04-28T00:21:03;2.85;;;1.58;;
68196;SDS011;55019;49.382;11.358;2023-04-28T00:23:28;3.92;;;1.90;;
68196;SDS011;55019;49.382;11.358;2023-04-28T00:25:54;2.47;;;1.98;;
68196;SDS011;55019;49.382;11.358;2023-04-28T00:28:21;3.30;;;1.98;;
68196;SDS011;55019;49.382;11.358;2023-04-28T00:30:47;3.30;;;1.70;;
68196;SDS011;55019;49.382;11.358;2023-04-28T00:33:13;2.28;;;1.65;;
68196;SDS011;55019;49.382;11.358;2023-04-28T00:35:39;2.40;;;1.90;;
68196;SDS011;55019;49.382;11.358;2023-04-28T00:38:06;2.63;;;1.80;;
68196;SDS011;55019;49.382;11.358;2023-04-28T00:40:32;4.15;;;1.80;;
68196;SDS011;55019;49.382;11.358;2023-04-28T00:43:02;3.17;;;1.92;;
68196;SDS011;55019;49.382;11.358;2023-04-28T00:45:28;3.25;;;1.92;;
68196;SDS011;55019;49.382;11.358;2023-04-28T00:47:54;4.32;;;1.85;;
68196;SDS011;55019;49.382;11.358;2023-04-28T00:50:21;4.40;;;2.45;;
68196;SDS011;55019;49.382;11.358;2023-04-28T00:52:48;3.70;;;2.25;;
68196;SDS011;55019;49.382;11.358;2023-04-28T00:55:14;5.68;;;1.98;;
68196;SDS011;55019;49.382;11.358;2023-04-28T00:57:41;4.68;;;2.00;;
68196;SDS011;55019;49.382;11.358;2023-04-28T01:00:07;2.50;;;1.88;;
68196;SDS011;55019;49.382;11.358;2023-04-28T01:02:35;3.20;;;1.77;;
68196;SDS011;55019;49.382;11.358;2023-04-28T01:05:01;3.70;;;1.65;;
68196;SDS011;55019;49.382;11.358;2023-04-28T01:07:28;3.92;;;2.03;;
68196;SDS011;55019;49.382;11.358;2023-04-28T01:09:54;4.22;;;2.13;;
68196;SDS011;55019;49.382;11.358;2023-04-28T01:12:25;3.28;;;2.10;;
68196;SDS011;55019;49.382;11.358;2023-04-28T01:14:54;3.03;;;2.00;;
68196;SDS011;55019;49.382;11.358;2023-04-28T01:17:20;3.80;;;2.25;;
68196;SDS011;55019;49.382;11.358;2023-04-28T01:19:46;3.92;;;2.15;;
68196;SDS011;55019;49.382;11.358;2023-04-28T01:22:11;3.63;;;2.22;;
68196;SDS011;55019;49.382;11.358;2023-04-28T01:24:41;2.88;;;1.77;;
68196;SDS011;55019;49.382;11.358;2023-04-28T01:27:07;4.35;;;2.53;;
68196;SDS011;55019;49.382;11.358;2023-04-28T01:29:35;3.92;;;2.22;;
68196;SDS011;55019;49.382;11.358;2023-04-28T01:32:01;3.50;;;2.22;;
68196;SDS011;55019;49.382;11.358;2023-04-28T01:34:27;3.05;;;2.00;;
68196;SDS011;55019;49.382;11.358;2023-04-28T01:36:53;3.97;;;2.55;;
68196;SDS011;55019;49.382;11.358;2023-04-28T01:39:19;3.35;;;2.08;;
68196;SDS011;55019;49.382;11.358;2023-04-28T01:41:44;3.38;;;2.03;;
68196;SDS011;55019;49.382;11.358;2023-04-28T01:44:10;4.78;;;2.10;;
68196;SDS011;55019;49.382;11.358;2023-04-28T01:46:37;3.75;;;2.10;;
68196;SDS011;55019;49.382;11.358;2023-04-28T01:49:03;4.22;;;2.42;;
68196;SDS011;55019;49.382;11.358;2023-04-28T01:51:29;3.33;;;2.30;;
68196;SDS011;55019;49.382;11.358;2023-04-28T01:53:55;4.93;;;2.70;;
68196;SDS011;55019;49.382;11.358;2023-04-28T01:56:22;3.83;;;2.35;;
68196;SDS011;55019;49.382;11.358;2023-04-28T01:58:49;3.00;;;2.20;;
68196;SDS011;55019;49.382;11.358;2023-04-28T02:01:15;3.25;;;2.10;;
68196;SDS011;55019;49.382;11.358;2023-04-28T02:03:41;3.60;;;2.40;;
68196;SDS011;55019;49.382;11.358;2023-04-28T02:06:06;3.55;;;2.05;;
68196;SDS011;55019;49.382;11.358;2023-04-28T02:08:34;3.47;;;2.45;;
68196;SDS011;55019;49.382;11.358;2023-04-28T02:11:00;2.63;;;2.00;;
68196;SDS011;55019;49.382;11.358;2023-04-28T02:13:26;2.85;;;2.20;;
68196;SDS011;55019;49.382;11.358;2023-04-28T02:15:51;4.07;;;2.20;;
68196;SDS011;55019;49.382;11.358;2023-04-28T02:18:19;4.70;;;2.22;;
68196;SDS011;55019;49.382;11.358;2023-04-28T02:20:45;5.75;;;2.33;;
68196;SDS011;55019;49.382;11.358;2023-04-28T02:23:10;3.35;;;2.13;;
68196;SDS011;55019;49.382;11.358;2023-04-28T02:25:36;2.78;;;2.20;;
68196;SDS011;55019;49.382;11.358;2023-04-28T02:28:02;3.70;;;1.92;;
68196;SDS011;55019;49.382;11.358;2023-04-28T02:30:28;4.78;;;2.25;;
68196;SDS011;55019;49.382;11.358;2023-04-28T02:32:54;3.90;;;2.42;;
68196;SDS011;55019;49.382;11.358;2023-04-28T02:35:20;2.63;;;1.98;;
68196;SDS011;55019;49.382;11.358;2023-04-28T02:37:46;4.78;;;2.28;;
68196;SDS011;55019;49.382;11.358;2023-04-28T02:40:12;3.83;;;2.45;;
68196;SDS011;55019;49.382;11.358;2023-04-28T02:42:38;5.15;;;2.60;;
68196;SDS011;55019;49.382;11.358;2023-04-28T02:45:04;4.20;;;2.50;;
68196;SDS011;55019;49.382;11.358;2023-04-28T02:47:30;3.17;;;2.30;;
68196;SDS011;55019;49.382;11.358;2023-04-28T02:49:55;6.00;;;2.67;;
68196;SDS011;55019;49.382;11.358;2023-04-28T02:52:21;4.78;;;2.50;;
68196;SDS011;55019;49.382;11.358;2023-04-28T02:54:47;5.30;;;2.58;;
68196;SDS011;55019;49.382;11.358;2023-04-28T02:57:14;3.92;;;2.22;;
68196;SDS011;55019;49.382;11.358;2023-04-28T02:59:40;4.82;;;2.20;;
68196;SDS011;55019;49.382;11.358;2023-04-28T03:02:06;5.03;;;2.53;;
68196;SDS011;55019;49.382;11.358;2023-04-28T03:04:33;3.83;;;2.33;;
68196;SDS011;55019;49.382;11.358;2023-04-28T03:06:59;4.25;;;2.70;;
68196;SDS011;55019;49.382;11.358;2023-04-28T03:09:24;4.18;;;2.30;;
68196;SDS011;55019;49.382;11.358;2023-04-28T03:11:50;3.05;;;2.10;;
68196;SDS011;55019;49.382;11.358;2023-04-28T03:14:16;4.28;;;2.22;;
68196;SDS011;55019;49.382;11.358;2023-04-28T03:16:42;3.88;;;1.98;;
68196;SDS011;55019;49.382;11.358;2023-04-28T03:19:08;3.03;;;2.08;;
68196;SDS011;55019;49.382;11.358;2023-04-28T03:21:33;4.05;;;2.70;;
68196;SDS011;55019;49.382;11.358;2023-04-28T03:23:59;4.57;;;1.98;;
68196;SDS011;55019;49.382;11.358;2023-04-28T03:26:25;3.75;;;2.38;;
68196;SDS011;55019;49.382;11.358;2023-04-28T03:28:51;4.40;;;2.30;;
68196;SDS011;55019;49.382;11.358;2023-04-28T03:31:18;4.57;;;2.80;;
68196;SDS011;55019;49.382;11.358;2023-04-28T03:33:44;4.20;;;2.60;;
68196;SDS011;55019;49.382;11.358;2023-04-28T03:36:12;4.03;;;2.60;;
68196;SDS011;55019;49.382;11.358;2023-04-28T03:38:38;3.33;;;2.40;;
68196;SDS011;55019;49.382;11.358;2023-04-28T03:41:03;3.67;;;2.67;;
68196;SDS011;55019;49.382;11.358;2023-04-28T03:43:38;3.42;;;2.35;;
68196;SDS011;55019;49.382;11.358;2023-04-28T03:46:13;4.85;;;3.03;;
68196;SDS011;55019;49.382;11.358;2023-04-28T03:48:39;3.88;;;2.42;;
68196;SDS011;55019;49.382;11.358;2023-04-28T03:51:04;3.45;;;2.17;;
68196;SDS011;55019;49.382;11.358;2023-04-28T03:53:30;6.20;;;2.45;;
68196;SDS011;55019;49.382;11.358;2023-04-28T03:55:56;3.55;;;2.80;;
68196;SDS011;55019;49.382;11.358;2023-04-28T03:58:22;3.58;;;2.33;;
68196;SDS011;55019;49.382;11.358;2023-04-28T04:00:48;4.68;;;2.42;;
68196;SDS011;55019;49.382;11.358;2023-04-28T04:03:14;3.97;;;2.20;;
68196;SDS011;55019;49.382;11.358;2023-04-28T04:05:42;4.55;;;2.58;;
68196;SDS011;55019;49.382;11.358;2023-04-28T04:08:07;4.15;;;2.45;;
68196;SDS011;55019;49.382;11.358;2023-04-28T04:10:33;4.22;;;2.40;;
68196;SDS011;55019;49.382;11.358;2023-04-28T04:12:59;7.60;;;3.10;;
68196;SDS011;55019;49.382;11.358;2023-04-28T04:15:25;4.18;;;2.35;;
68196;SDS011;55019;49.382;11.358;2023-04-28T04:17:51;5.40;;;2.28;;
68196;SDS011;55019;49.382;11.358;2023-04-28T04:20:17;3.30;;;2.40;;
68196;SDS011;55019;49.382;11.358;2023-04-28T04:22:44;4.78;;;2.45;;
68196;SDS011;55019;49.382;11.358;2023-04-28T04:25:10;3.90;;;2.47;;
68196;SDS011;55019;49.382;11.358;2023-04-28T04:27:36;3.78;;;2.10;;
68196;SDS011;55019;49.382;11.358;2023-04-28T04:30:02;3.22;;;2.38;;
68196;SDS011;55019;49.382;11.358;2023-04-28T04:32:31;4.25;;;2.40;;
68196;SDS011;55019;49.382;11.358;2023-04-28T04:34:57;4.35;;;2.15;;
68196;SDS011;55019;49.382;11.358;2023-04-28T04:37:23;4.32;;;3.03;;
68196;SDS011;55019;49.382;11.358;2023-04-28T04:39:56;4.70;;;2.63;;
68196;SDS011;55019;49.382;11.358;2023-04-28T04:42:22;4.47;;;2.60;;
68196;SDS011;55019;49.382;11.358;2023-04-28T04:45:08;4.82;;;2.67;;
68196;SDS011;55019;49.382;11.358;2023-04-28T04:47:36;5.13;;;2.70;;
68196;SDS011;55019;49.382;11.358;2023-04-28T04:50:02;4.88;;;2.92;;
68196;SDS011;55019;49.382;11.358;2023-04-28T04:52:28;5.40;;;2.55;;
68196;SDS011;55019;49.382;11.358;2023-04-28T04:54:54;3.95;;;2.55;;
68196;SDS011;55019;49.382;11.358;2023-04-28T04:57:22;4.22;;;2.63;;
68196;SDS011;55019;49.382;11.358;2023-04-28T05:00:03;5.05;;;2.38;;
68196;SDS011;55019;49.382;11.358;2023-04-28T05:02:31;5.28;;;2.53;;
68196;SDS011;55019;49.382;11.358;2023-04-28T05:04:58;5.03;;;2.67;;
68196;SDS011;55019;49.382;11.358;2023-04-28T05:07:24;6.35;;;2.40;;
68196;SDS011;55019;49.382;11.358;2023-04-28T05:09:51;4.80;;;2.58;;
68196;SDS011;55019;49.382;11.358;2023-04-28T05:12:17;4.85;;;2.58;;
68196;SDS011;55019;49.382;11.358;2023-04-28T05:14:42;4.25;;;2.92;;
68196;SDS011;55019;49.382;11.358;2023-04-28T05:17:08;7.55;;;3.10;;
68196;SDS011;55019;49.382;11.358;2023-04-28T05:19:37;4.05;;;2.70;;
68196;SDS011;55019;49.382;11.358;2023-04-28T05:22:03;5.55;;;2.83;;
68196;SDS011;55019;49.382;11.358;2023-04-28T05:24:28;4.93;;;2.42;;
68196;SDS011;55019;49.382;11.358;2023-04-28T05:26:55;5.25;;;2.70;;
68196;SDS011;55019;49.382;11.358;2023-04-28T05:29:23;3.47;;;2.22;;
68196;SDS011;55019;49.382;11.358;2023-04-28T05:31:52;4.68;;;2.83;;
68196;SDS011;55019;49.382;11.358;2023-04-28T05:34:19;6.22;;;3.05;;
68196;SDS011;55019;49.382;11.358;2023-04-28T05:36:45;4.07;;;2.58;;
68196;SDS011;55019;49.382;11.358;2023-04-28T05:39:11;4.70;;;2.70;;
68196;SDS011;55019;49.382;11.358;2023-04-28T05:41:38;5.93;;;2.65;;
68196;SDS011;55019;49.382;11.358;2023-04-28T05:44:06;3.85;;;2.38;;
68196;SDS011;55019;49.382;11.358;2023-04-28T05:46:32;5.03;;;2.90;;
68196;SDS011;55019;49.382;11.358;2023-04-28T05:48:59;4.72;;;2.72;;
68196;SDS011;55019;49.382;11.358;2023-04-28T05:51:28;4.35;;;2.15;;
68196;SDS011;55019;49.382;11.358;2023-04-28T05:53:54;4.00;;;2.50;;
68196;SDS011;55019;49.382;11.358;2023-04-28T05:56:21;4.55;;;2.30;;
68196;SDS011;55019;49.382;11.358;2023-04-28T05:58:47;4.60;;;2.40;;
68196;SDS011;55019;49.382;11.358;2023-04-28T06:01:15;3.80;;;3.05;;
68196;SDS011;55019;49.382;11.358;2023-04-28T06:03:41;4.68;;;2.58;;
68196;SDS011;55019;49.382;11.358;2023-04-28T06:06:07;4.00;;;2.47;;
68196;SDS011;55019;49.382;11.358;2023-04-28T06:08:33;3.97;;;2.53;;
68196;SDS011;55019;49.382;11.358;2023-04-28T06:11:02;4.10;;;2.42;;
68196;SDS011;55019;49.382;11.358;2023-04-28T06:13:28;4.85;;;2.47;;
68196;SDS011;55019;49.382;11.358;2023-04-28T06:15:53;3.33;;;2.35;;
68196;SDS011;55019;49.382;11.358;2023-04-28T06:18:19;4.25;;;2.67;;
68196;SDS011;55019;49.382;11.358;2023-04-28T06:20:45;2.83;;;1.90;;
68196;SDS011;55019;49.382;11.358;2023-04-28T06:23:11;2.85;;;2.17;;
68196;SDS011;55019;49.382;11.358;2023-04-28T06:25:42;2.67;;;2.40;;
68196;SDS011;55019;49.382;11.358;2023-04-28T06:28:08;3.67;;;2.25;;
68196;SDS011;55019;49.382;11.358;2023-04-28T06:30:34;5.47;;;2.55;;
68196;SDS011;55019;49.382;11.358;2023-04-28T06:33:02;4.45;;;2.60;;
68196;SDS011;55019;49.382;11.358;2023-04-28T06:35:27;3.53;;;2.65;;
68196;SDS011;55019;49.382;11.358;2023-04-28T06:37:53;3.30;;;2.53;;
68196;SDS011;55019;49.382;11.358;2023-04-28T06:40:19;3.88;;;2.40;;
68196;SDS011;55019;49.382;11.358;2023-04-28T06:42:56;4.85;;;3.00;;
68196;SDS011;55019;49.382;11.358;2023-04-28T06:45:29;5.10;;;2.67;;
68196;SDS011;55019;49.382;11.358;2023-04-28T06:47:55;5.97;;;2.58;;
68196;SDS011;55019;49.382;11.358;2023-04-28T06:50:24;5.65;;;2.72;;
68196;SDS011;55019;49.382;11.358;2023-04-28T06:52:50;5.05;;;2.50;;
68196;SDS011;55019;49.382;11.358;2023-04-28T06:55:16;4.35;;;2.67;;
68196;SDS011;55019;49.382;11.358;2023-04-28T06:57:42;4.57;;;3.03;;
68196;SDS011;55019;49.382;11.358;2023-04-28T07:02:35;4.47;;;3.13;;
68196;SDS011;55019;49.382;11.358;2023-04-28T07:05:02;6.80;;;3.38;;
68196;SDS011;55019;49.382;11.358;2023-04-28T07:07:28;3.85;;;2.45;;
68196;SDS011;55019;49.382;11.358;2023-04-28T07:09:54;5.28;;;2.80;;
68196;SDS011;55019;49.382;11.358;2023-04-28T07:12:20;4.80;;;2.70;;
68196;SDS011;55019;49.382;11.358;2023-04-28T07:14:46;6.43;;;2.70;;
68196;SDS011;55019;49.382;11.358;2023-04-28T07:17:12;4.25;;;2.83;;
68196;SDS011;55019;49.382;11.358;2023-04-28T07:19:38;5.07;;;2.92;;
68196;SDS011;55019;49.382;11.358;2023-04-28T07:22:03;4.45;;;3.03;;
68196;SDS011;55019;49.382;11.358;2023-04-28T07:24:29;5.22;;;2.80;;
68196;SDS011;55019;49.382;11.358;2023-04-28T07:26:55;4.25;;;2.72;;
68196;SDS011;55019;49.382;11.358;2023-04-28T07:29:21;5.30;;;3.25;;
68196;SDS011;55019;49.382;11.358;2023-04-28T07:31:48;4.40;;;3.03;;
68196;SDS011;55019;49.382;11.358;2023-04-28T07:34:14;5.07;;;3.08;;
68196;SDS011;55019;49.382;11.358;2023-04-28T07:36:40;6.10;;;2.88;;
68196;SDS011;55019;49.382;11.358;2023-04-28T07:39:05;7.00;;;3.15;;
68196;SDS011;55019;49.382;11.358;2023-04-28T07:41:35;4.45;;;2.60;;
68196;SDS011;55019;49.382;11.358;2023-04-28T07:44:02;4.90;;;2.50;;
68196;SDS011;55019;49.382;11.358;2023-04-28T07:48:55;4.68;;;3.40;;
68196;SDS011;55019;49.382;11.358;2023-04-28T07:51:21;6.00;;;3.35;;
68196;SDS011;55019;49.382;11.358;2023-04-28T07:53:46;4.35;;;3.40;;
68196;SDS011;55019;49.382;11.358;2023-04-28T07:56:12;4.47;;;3.00;;
68196;SDS011;55019;49.382;11.358;2023-04-28T07:58:38;4.68;;;3.20;;
68196;SDS011;55019;49.382;11.358;2023-04-28T08:01:04;5.20;;;3.60;;
68196;SDS011;55019;49.382;11.358;2023-04-28T08:03:29;5.85;;;3.22;;
68196;SDS011;55019;49.382;11.358;2023-04-28T08:05:55;7.28;;;3.97;;
68196;SDS011;55019;49.382;11.358;2023-04-28T08:08:22;7.50;;;3.28;;
68196;SDS011;55019;49.382;11.358;2023-04-28T08:10:48;5.10;;;3.42;;
68196;SDS011;55019;49.382;11.358;2023-04-28T08:13:15;4.43;;;2.95;;
68196;SDS011;55019;49.382;11.358;2023-04-28T08:15:41;3.92;;;3.08;;
68196;SDS011;55019;49.382;11.358;2023-04-28T08:18:06;5.82;;;3.22;;
68196;SDS011;55019;49.382;11.358;2023-04-28T08:20:32;5.57;;;3.55;;
68196;SDS011;55019;49.382;11.358;2023-04-28T08:22:58;6.70;;;3.75;;
68196;SDS011;55019;49.382;11.358;2023-04-28T08:25:24;7.55;;;4.03;;
68196;SDS011;55019;49.382;11.358;2023-04-28T08:27:50;5.30;;;3.22;;
68196;SDS011;55019;49.382;11.358;2023-04-28T08:30:16;5.43;;;4.10;;
68196;SDS011;55019;49.382;11.358;2023-04-28T08:32:42;7.00;;;4.10;;
68196;SDS011;55019;49.382;11.358;2023-04-28T08:35:08;4.80;;;3.25;;
68196;SDS011;55019;49.382;11.358;2023-04-28T08:37:34;7.25;;;3.80;;
68196;SDS011;55019;49.382;11.358;2023-04-28T08:40:00;5.30;;;3.70;;
68196;SDS011;55019;49.382;11.358;2023-04-28T08:42:30;3.60;;;3.13;;
68196;SDS011;55019;49.382;11.358;2023-04-28T08:44:57;5.78;;;3.22;;
68196;SDS011;55019;49.382;11.358;2023-04-28T08:47:32;4.72;;;3.28;;
68196;SDS011;55019;49.382;11.358;2023-04-28T08:50:06;6.63;;;3.50;;
68196;SDS011;55019;49.382;11.358;2023-04-28T08:52:33;6.07;;;3.50;;
68196;SDS011;55019;49.382;11.358;2023-04-28T08:55:00;4.00;;;3.42;;
68196;SDS011;55019;49.382;11.358;2023-04-28T08:57:34;4.95;;;3.58;;
68196;SDS011;55019;49.382;11.358;2023-04-28T09:00:14;7.03;;;3.10;;
68196;SDS011;55019;49.382;11.358;2023-04-28T09:02:40;6.53;;;3.50;;
68196;SDS011;55019;49.382;11.358;2023-04-28T09:05:12;9.40;;;3.38;;
68196;SDS011;55019;49.382;11.358;2023-04-28T09:07:38;7.13;;;3.38;;
68196;SDS011;55019;49.382;11.358;2023-04-28T09:10:21;6.03;;;3.60;;
68196;SDS011;55019;49.382;11.358;2023-04-28T09:12:50;5.13;;;3.45;;
68196;SDS011;55019;49.382;11.358;2023-04-28T09:15:30;6.30;;;4.05;;
68196;SDS011;55019;49.382;11.358;2023-04-28T09:17:59;6.95;;;4.43;;
68196;SDS011;55019;49.382;11.358;2023-04-28T09:20:26;5.72;;;3.67;;
68196;SDS011;55019;49.382;11.358;2023-04-28T09:22:54;7.20;;;4.18;;
68196;SDS011;55019;49.382;11.358;2023-04-28T09:25:21;6.10;;;3.92;;
68196;SDS011;55019;49.382;11.358;2023-04-28T09:27:48;6.07;;;3.42;;
68196;SDS011;55019;49.382;11.358;2023-04-28T09:30:14;5.13;;;3.72;;
68196;SDS011;55019;49.382;11.358;2023-04-28T09:32:41;6.57;;;4.03;;
68196;SDS011;55019;49.382;11.358;2023-04-28T09:35:07;7.03;;;3.80;;
68196;SDS011;55019;49.382;11.358;2023-04-28T09:37:33;4.68;;;3.30;;
68196;SDS011;55019;49.382;11.358;2023-04-28T09:40:07;4.95;;;3.38;;
68196;SDS011;55019;49.382;11.358;2023-04-28T09:42:38;6.85;;;4.32;;
68196;SDS011;55019;49.382;11.358;2023-04-28T09:45:06;6.15;;;4.22;;
68196;SDS011;55019;49.382;11.358;2023-04-28T09:47:35;5.72;;;3.63;;
68196;SDS011;55019;49.382;11.358;2023-04-28T09:50:03;5.32;;;4.03;;
68196;SDS011;55019;49.382;11.358;2023-04-28T09:52:43;6.13;;;4.30;;
68196;SDS011;55019;49.382;11.358;2023-04-28T09:55:10;8.05;;;4.15;;
68196;SDS011;55019;49.382;11.358;2023-04-28T09:57:46;6.35;;;4.47;;
68196;SDS011;55019;49.382;11.358;2023-04-28T10:00:16;6.13;;;4.03;;
68196;SDS011;55019;49.382;11.358;2023-04-28T10:02:44;6.57;;;3.90;;
68196;SDS011;55019;49.382;11.358;2023-04-28T10:05:11;4.70;;;3.15;;
68196;SDS011;55019;49.382;11.358;2023-04-28T10:07:41;6.43;;;3.60;;
68196;SDS011;55019;49.382;11.358;2023-04-28T10:10:06;6.90;;;4.22;;
68196;SDS011;55019;49.382;11.358;2023-04-28T10:12:32;5.35;;;3.88;;
68196;SDS011;55019;49.382;11.358;2023-04-28T10:14:59;5.70;;;3.53;;
68196;SDS011;55019;49.382;11.358;2023-04-28T10:17:26;6.13;;;3.90;;
68196;SDS011;55019;49.382;11.358;2023-04-28T10:19:53;5.93;;;3.70;;
68196;SDS011;55019;49.382;11.358;2023-04-28T10:27:39;7.13;;;3.95;;
68196;SDS011;55019;49.382;11.358;2023-04-28T10:30:13;5.88;;;4.28;;
68196;SDS011;55019;49.382;11.358;2023-04-28T10:32:43;7.88;;;4.47;;
68196;SDS011;55019;49.382;11.358;2023-04-28T10:38:09;5.40;;;3.55;;
68196;SDS011;55019;49.382;11.358;2023-04-28T10:40:39;6.20;;;4.15;;
68196;SDS011;55019;49.382;11.358;2023-04-28T10:43:10;4.95;;;4.28;;
68196;SDS011;55019;49.382;11.358;2023-04-28T10:48:18;7.22;;;3.80;;
68196;SDS011;55019;49.382;11.358;2023-04-28T10:56:11;5.82;;;3.70;;
68196;SDS011;55019;49.382;11.358;2023-04-28T10:58:42;4.68;;;3.47;;
68196;SDS011;55019;49.382;11.358;2023-04-28T11:01:26;5.75;;;3.70;;
68196;SDS011;55019;49.382;11.358;2023-04-28T11:03:57;3.70;;;3.30;;
68196;SDS011;55019;49.382;11.358;2023-04-28T11:06:29;5.40;;;3.70;;
68196;SDS011;55019;49.382;11.358;2023-04-28T11:16:54;5.00;;;4.50;;
68196;SDS011;55019;49.382;11.358;2023-04-28T11:19:28;4.80;;;4.22;;
68196;SDS011;55019;49.382;11.358;2023-04-28T11:21:55;5.57;;;4.35;;
68196;SDS011;55019;49.382;11.358;2023-04-28T11:24:25;5.00;;;3.90;;
68196;SDS011;55019;49.382;11.358;2023-04-28T11:26:53;6.47;;;3.35;;
68196;SDS011;55019;49.382;11.358;2023-04-28T11:29:30;5.70;;;3.35;;
68196;SDS011;55019;49.382;11.358;2023-04-28T11:31:57;4.15;;;3.20;;
68196;SDS011;55019;49.382;11.358;2023-04-28T11:34:23;3.75;;;3.17;;
68196;SDS011;55019;49.382;11.358;2023-04-28T11:36:49;5.40;;;3.95;;
68196;SDS011;55019;49.382;11.358;2023-04-28T11:39:15;3.50;;;3.00;;
68196;SDS011;55019;49.382;11.358;2023-04-28T11:41:44;3.80;;;3.30;;
68196;SDS011;55019;49.382;11.358;2023-04-28T11:44:13;3.80;;;2.92;;
68196;SDS011;55019;49.382;11.358;2023-04-28T11:46:44;3.45;;;3.15;;
68196;SDS011;55019;49.382;11.358;2023-04-28T11:49:20;3.92;;;3.03;;
68196;SDS011;55019;49.382;11.358;2023-04-28T11:51:48;3.42;;;2.70;;
68196;SDS011;55019;49.382;11.358;2023-04-28T11:56:49;3.22;;;2.75;;
68196;SDS011;55019;49.382;11.358;2023-04-28T11:59:15;3.60;;;3.03;;
68196;SDS011;55019;49.382;11.358;2023-04-28T12:01:45;3.42;;;3.00;;
68196;SDS011;55019;49.382;11.358;2023-04-28T12:04:13;4.47;;;3.40;;
68196;SDS011;55019;49.382;11.358;2023-04-28T12:06:39;4.22;;;3.30;;
68196;SDS011;55019;49.382;11.358;2023-04-28T12:09:15;4.65;;;3.20;;
68196;SDS011;55019;49.382;11.358;2023-04-28T12:11:52;3.70;;;3.38;;
68196;SDS011;55019;49.382;11.358;2023-04-28T12:14:26;3.78;;;3.03;;
68196;SDS011;55019;49.382;11.358;2023-04-28T12:16:52;3.53;;;3.22;;
68196;SDS011;55019;49.382;11.358;2023-04-28T12:19:17;3.80;;;3.25;;
68196;SDS011;55019;49.382;11.358;2023-04-28T12:22:05;4.00;;;3.33;;
68196;SDS011;55019;49.382;11.358;2023-04-28T12:24:32;3.47;;;2.80;;
68196;SDS011;55019;49.382;11.358;2023-04-28T12:27:18;3.63;;;3.13;;
68196;SDS011;55019;49.382;11.358;2023-04-28T12:29:49;3.25;;;2.95;;
68196;SDS011;55019;49.382;11.358;2023-04-28T12:32:16;3.55;;;2.97;;
68196;SDS011;55019;49.382;11.358;2023-04-28T12:34:44;3.53;;;3.22;;
68196;SDS011;55019;49.382;11.358;2023-04-28T12:37:10;3.75;;;2.80;;
68196;SDS011;55019;49.382;11.358;2023-04-28T12:39:38;3.70;;;3.40;;
68196;SDS011;55019;49.382;11.358;2023-04-28T12:42:05;4.07;;;3.42;;
68196;SDS011;55019;49.382;11.358;2023-04-28T12:44:31;4.72;;;3.55;;
68196;SDS011;55019;49.382;11.358;2023-04-28T12:47:06;4.18;;;3.75;;
68196;SDS011;55019;49.382;11.358;2023-04-28T12:49:33;4.72;;;3.20;;
68196;SDS011;55019;49.382;11.358;2023-04-28T12:52:00;5.07;;;3.33;;
68196;SDS011;55019;49.382;11.358;2023-04-28T12:54:25;3.90;;;3.40;;
68196;SDS011;55019;49.382;11.358;2023-04-28T12:56:51;4.40;;;3.55;;
68196;SDS011;55019;49.382;11.358;2023-04-28T12:59:18;3.90;;;3.08;;
68196;SDS011;55019;49.382;11.358;2023-04-28T13:01:46;6.63;;;3.22;;
68196;SDS011;55019;49.382;11.358;2023-04-28T13:04:11;3.80;;;2.92;;
68196;SDS011;55019;49.382;11.358;2023-04-28T13:06:37;3.88;;;3.17;;
68196;SDS011;55019;49.382;11.358;2023-04-28T13:09:04;3.42;;;3.00;;
68196;SDS011;55019;49.382;11.358;2023-04-28T13:11:30;3.10;;;2.63;;
68196;SDS011;55019;49.382;11.358;2023-04-28T13:13:56;4.28;;;3.20;;
68196;SDS011;55019;49.382;11.358;2023-04-28T13:16:22;3.75;;;2.92;;
68196;SDS011;55019;49.382;11.358;2023-04-28T13:18:49;3.17;;;2.75;;
68196;SDS011;55019;49.382;11.358;2023-04-28T13:21:16;3.88;;;2.80;;
68196;SDS011;55019;49.382;11.358;2023-04-28T13:23:42;3.13;;;2.83;;
68196;SDS011;55019;49.382;11.358;2023-04-28T13:26:08;3.80;;;2.88;;
68196;SDS011;55019;49.382;11.358;2023-04-28T13:28:33;3.30;;;2.80;;
68196;SDS011;55019;49.382;11.358;2023-04-28T13:30:59;3.53;;;3.00;;
68196;SDS011;55019;49.382;11.358;2023-04-28T13:33:25;3.38;;;2.88;;
68196;SDS011;55019;49.382;11.358;2023-04-28T13:35:56;3.83;;;2.67;;
68196;SDS011;55019;49.382;11.358;2023-04-28T13:38:22;3.53;;;2.85;;
68196;SDS011;55019;49.382;11.358;2023-04-28T13:40:48;4.28;;;2.70;;
68196;SDS011;55019;49.382;11.358;2023-04-28T13:43:14;3.45;;;2.65;;
68196;SDS011;55019;49.382;11.358;2023-04-28T13:45:40;3.85;;;3.03;;
68196;SDS011;55019;49.382;11.358;2023-04-28T13:48:06;3.35;;;2.55;;
68196;SDS011;55019;49.382;11.358;2023-04-28T13:50:31;3.53;;;2.67;;
68196;SDS011;55019;49.382;11.358;2023-04-28T13:52:57;3.78;;;2.50;;
68196;SDS011;55019;49.382;11.358;2023-04-28T13:55:23;3.20;;;2.88;;
68196;SDS011;55019;49.382;11.358;2023-04-28T13:57:53;3.40;;;2.80;;
68196;SDS011;55019;49.382;11.358;2023-04-28T14:00:19;4.10;;;3.08;;
68196;SDS011;55019;49.382;11.358;2023-04-28T14:02:45;3.65;;;2.60;;
68196;SDS011;55019;49.382;11.358;2023-04-28T14:05:13;3.22;;;2.75;;
68196;SDS011;55019;49.382;11.358;2023-04-28T14:07:41;3.53;;;3.20;;
68196;SDS011;55019;49.382;11.358;2023-04-28T14:10:07;4.00;;;3.33;;
68196;SDS011;55019;49.382;11.358;2023-04-28T14:12:33;4.68;;;3.33;;
68196;SDS011;55019;49.382;11.358;2023-04-28T14:14:59;3.70;;;2.85;;
68196;SDS011;55019;49.382;11.358;2023-04-28T14:17:25;3.30;;;2.88;;
68196;SDS011;55019;49.382;11.358;2023-04-28T14:19:52;3.67;;;3.25;;
68196;SDS011;55019;49.382;11.358;2023-04-28T14:22:18;3.40;;;3.10;;
68196;SDS011;55019;49.382;11.358;2023-04-28T14:24:43;3.58;;;2.85;;
68196;SDS011;55019;49.382;11.358;2023-04-28T14:27:09;3.33;;;2.60;;
68196;SDS011;55019;49.382;11.358;2023-04-28T14:29:35;3.90;;;3.08;;
68196;SDS011;55019;49.382;11.358;2023-04-28T14:32:01;3.40;;;2.78;;
68196;SDS011;55019;49.382;11.358;2023-04-28T14:34:26;3.00;;;2.38;;
68196;SDS011;55019;49.382;11.358;2023-04-28T14:36:52;3.03;;;2.47;;
68196;SDS011;55019;49.382;11.358;2023-04-28T14:39:18;3.28;;;2.75;;
68196;SDS011;55019;49.382;11.358;2023-04-28T14:41:44;2.95;;;2.58;;
68196;SDS011;55019;49.382;11.358;2023-04-28T14:44:10;3.25;;;2.50;;
68196;SDS011;55019;49.382;11.358;2023-04-28T14:46:36;4.68;;;2.88;;
68196;SDS011;55019;49.382;11.358;2023-04-28T14:49:01;3.17;;;2.78;;
68196;SDS011;55019;49.382;11.358;2023-04-28T14:51:28;3.95;;;3.42;;
68196;SDS011;55019;49.382;11.358;2023-04-28T14:53:53;2.58;;;2.22;;
68196;SDS011;55019;49.382;11.358;2023-04-28T14:56:19;3.20;;;2.50;;
68196;SDS011;55019;49.382;11.358;2023-04-28T14:58:45;3.42;;;3.13;;
68196;SDS011;55019;49.382;11.358;2023-04-28T15:01:12;4.88;;;3.30;;
68196;SDS011;55019;49.382;11.358;2023-04-28T15:03:37;3.00;;;2.75;;
68196;SDS011;55019;49.382;11.358;2023-04-28T15:06:03;3.20;;;2.25;;